sensor_id;sensor_type;location;lat;lon;timestamp;temperature;humidity
14934;DHT22;7560;51.364;12.384;2023-04-24T00:02:49;14.90;99.90
14934;DHT22;7560;51.364;12.384;2023-04-24T00:07:52;14.80;99.90
14934;DHT22;7560;51.364;12.384;2023-04-24T00:12:54;14.70;99.90
14934;DHT22;7560;51.364;12.384;2023-04-24T00:17:56;14.60;99.90
14934;DHT22;7560;51.364;12.384;2023-04-24T00:22:57;14.50;99.90
14934;DHT22;7560;51.364;12.384;2023-04-24T00:27:59;14.50;99.90
14934;DHT22;7560;51.364;12.384;2023-04-24T00:33:01;14.40;99.90
14934;DHT22;7560;51.364;12.384;2023-04-24T00:38:03;14.30;99.90
14934;DHT22;7560;51.364;12.384;2023-04-24T00:43:05;14.20;99.90
14934;DHT22;7560;51.364;12.384;2023-04-24T00:48:11;14.10;99.90
14934;DHT22;7560;51.364;12.384;2023-04-24T00:53:13;13.90;99.90
14934;DHT22;7560;51.364;12.384;2023-04-24T00:58:15;13.90;99.90
14934;DHT22;7560;51.364;12.384;2023-04-24T01:03:16;13.80;99.90
14934;DHT22;7560;51.364;12.384;2023-04-24T01:08:19;13.70;99.90
14934;DHT22;7560;51.364;12.384;2023-04-24T01:13:22;13.60;99.90
14934;DHT22;7560;51.364;12.384;2023-04-24T01:18:24;13.70;99.90
14934;DHT22;7560;51.364;12.384;2023-04-24T01:23:26;13.60;99.90
14934;DHT22;7560;51.364;12.384;2023-04-24T01:28:28;13.60;99.90
14934;DHT22;7560;51.364;12.384;2023-04-24T01:33:30;13.50;99.90
14934;DHT22;7560;51.364;12.384;2023-04-24T01:38:32;13.50;99.90
14934;DHT22;7560;51.364;12.384;2023-04-24T01:43:33;13.40;99.90
14934;DHT22;7560;51.364;12.384;2023-04-24T01:48:35;13.40;99.90
14934;DHT22;7560;51.364;12.384;2023-04-24T01:53:37;13.30;99.90
14934;DHT22;7560;51.364;12.384;2023-04-24T01:58:39;13.20;99.90
14934;DHT22;7560;51.364;12.384;2023-04-24T02:03:41;13.10;99.90
14934;DHT22;7560;51.364;12.384;2023-04-24T02:08:43;13.00;99.90
14934;DHT22;7560;51.364;12.384;2023-04-24T02:13:44;13.00;99.90
14934;DHT22;7560;51.364;12.384;2023-04-24T02:18:46;12.90;99.90
14934;DHT22;7560;51.364;12.384;2023-04-24T02:23:48;12.90;99.90
14934;DHT22;7560;51.364;12.384;2023-04-24T02:28:50;12.80;99.90
14934;DHT22;7560;51.364;12.384;2023-04-24T02:33:51;12.90;99.90
14934;DHT22;7560;51.364;12.384;2023-04-24T02:38:53;12.80;99.90
14934;DHT22;7560;51.364;12.384;2023-04-24T02:43:55;12.70;99.90
14934;DHT22;7560;51.364;12.384;2023-04-24T02:48:56;12.70;99.90
14934;DHT22;7560;51.364;12.384;2023-04-24T02:53:58;12.60;99.90
14934;DHT22;7560;51.364;12.384;2023-04-24T02:59:00;12.60;99.90
14934;DHT22;7560;51.364;12.384;2023-04-24T03:04:02;12.60;99.90
14934;DHT22;7560;51.364;12.384;2023-04-24T03:09:04;12.50;99.90
14934;DHT22;7560;51.364;12.384;2023-04-24T03:14:06;12.50;99.90
14934;DHT22;7560;51.364;12.384;2023-04-24T03:19:08;12.50;99.90
14934;DHT22;7560;51.364;12.384;2023-04-24T03:24:10;12.40;99.90
14934;DHT22;7560;51.364;12.384;2023-04-24T03:29:11;12.40;99.90
14934;DHT22;7560;51.364;12.384;2023-04-24T03:34:14;12.30;99.90
14934;DHT22;7560;51.364;12.384;2023-04-24T03:39:18;12.30;99.90
14934;DHT22;7560;51.364;12.384;2023-04-24T03:44:20;12.20;99.90
14934;DHT22;7560;51.364;12.384;2023-04-24T03:49:22;12.30;99.90
14934;DHT22;7560;51.364;12.384;2023-04-24T03:54:24;12.20;99.90
14934;DHT22;7560;51.364;12.384;2023-04-24T03:59:26;12.20;99.90
14934;DHT22;7560;51.364;12.384;2023-04-24T04:04:28;12.20;99.90
14934;DHT22;7560;51.364;12.384;2023-04-24T04:09:30;12.10;99.90
14934;DHT22;7560;51.364;12.384;2023-04-24T04:14:33;12.20;99.90
14934;DHT22;7560;51.364;12.384;2023-04-24T04:19:36;12.10;99.90
14934;DHT22;7560;51.364;12.384;2023-04-24T04:24:38;12.20;99.90
14934;DHT22;7560;51.364;12.384;2023-04-24T04:29:42;12.20;99.90
14934;DHT22;7560;51.364;12.384;2023-04-24T04:34:45;12.40;99.90
14934;DHT22;7560;51.364;12.384;2023-04-24T04:39:47;12.50;99.90
14934;DHT22;7560;51.364;12.384;2023-04-24T04:44:49;12.60;99.90
14934;DHT22;7560;51.364;12.384;2023-04-24T04:49:52;12.60;99.90
14934;DHT22;7560;51.364;12.384;2023-04-24T04:54:55;12.70;99.90
14934;DHT22;7560;51.364;12.384;2023-04-24T04:59:57;12.70;99.90
14934;DHT22;7560;51.364;12.384;2023-04-24T05:05:01;12.80;99.90
14934;DHT22;7560;51.364;12.384;2023-04-24T05:10:04;12.90;99.90
14934;DHT22;7560;51.364;12.384;2023-04-24T05:15:06;12.90;99.90
14934;DHT22;7560;51.364;12.384;2023-04-24T05:20:08;13.10;99.90
14934;DHT22;7560;51.364;12.384;2023-04-24T05:25:12;13.20;99.90
14934;DHT22;7560;51.364;12.384;2023-04-24T05:30:14;13.30;99.90
14934;DHT22;7560;51.364;12.384;2023-04-24T05:35:15;13.60;99.90
14934;DHT22;7560;51.364;12.384;2023-04-24T05:40:17;13.70;99.90
14934;DHT22;7560;51.364;12.384;2023-04-24T05:45:19;13.80;99.90
14934;DHT22;7560;51.364;12.384;2023-04-24T05:50:21;13.80;99.90
14934;DHT22;7560;51.364;12.384;2023-04-24T05:55:23;13.70;99.90
14934;DHT22;7560;51.364;12.384;2023-04-24T06:00:26;13.80;99.90
14934;DHT22;7560;51.364;12.384;2023-04-24T06:05:28;14.00;99.90
14934;DHT22;7560;51.364;12.384;2023-04-24T06:10:30;14.20;99.90
14934;DHT22;7560;51.364;12.384;2023-04-24T06:15:32;14.40;99.90
14934;DHT22;7560;51.364;12.384;2023-04-24T06:20:38;14.40;99.90
14934;DHT22;7560;51.364;12.384;2023-04-24T06:25:40;14.40;99.90
14934;DHT22;7560;51.364;12.384;2023-04-24T06:30:42;14.40;99.90
14934;DHT22;7560;51.364;12.384;2023-04-24T06:35:45;14.50;99.90
14934;DHT22;7560;51.364;12.384;2023-04-24T06:40:46;14.60;99.90
14934;DHT22;7560;51.364;12.384;2023-04-24T06:45:49;14.70;99.90
14934;DHT22;7560;51.364;12.384;2023-04-24T06:50:52;14.70;99.90
14934;DHT22;7560;51.364;12.384;2023-04-24T06:55:54;14.70;99.90
14934;DHT22;7560;51.364;12.384;2023-04-24T07:00:56;14.90;99.90
14934;DHT22;7560;51.364;12.384;2023-04-24T07:05:58;15.00;99.90
14934;DHT22;7560;51.364;12.384;2023-04-24T07:11:00;15.10;99.90
14934;DHT22;7560;51.364;12.384;2023-04-24T07:16:02;15.00;99.90
14934;DHT22;7560;51.364;12.384;2023-04-24T07:21:04;15.10;99.90
14934;DHT22;7560;51.364;12.384;2023-04-24T07:26:09;15.10;99.90
14934;DHT22;7560;51.364;12.384;2023-04-24T07:31:11;15.20;99.90
14934;DHT22;7560;51.364;12.384;2023-04-24T07:36:13;15.40;99.90
14934;DHT22;7560;51.364;12.384;2023-04-24T07:41:18;15.70;99.90
14934;DHT22;7560;51.364;12.384;2023-04-24T07:46:20;16.10;99.90
14934;DHT22;7560;51.364;12.384;2023-04-24T07:51:25;16.10;99.90
14934;DHT22;7560;51.364;12.384;2023-04-24T07:56:31;16.30;99.90
14934;DHT22;7560;51.364;12.384;2023-04-24T08:01:33;16.20;99.90
14934;DHT22;7560;51.364;12.384;2023-04-24T08:06:35;16.10;99.90
14934;DHT22;7560;51.364;12.384;2023-04-24T08:11:37;16.20;99.90
14934;DHT22;7560;51.364;12.384;2023-04-24T08:16:39;16.30;99.90
14934;DHT22;7560;51.364;12.384;2023-04-24T08:21:40;16.60;99.90
14934;DHT22;7560;51.364;12.384;2023-04-24T08:26:42;16.80;99.90
14934;DHT22;7560;51.364;12.384;2023-04-24T08:31:44;17.30;99.90
14934;DHT22;7560;51.364;12.384;2023-04-24T08:36:46;17.70;99.90
14934;DHT22;7560;51.364;12.384;2023-04-24T08:41:50;18.10;99.90
14934;DHT22;7560;51.364;12.384;2023-04-24T08:46:54;17.70;99.90
14934;DHT22;7560;51.364;12.384;2023-04-24T08:51:56;17.50;99.90
14934;DHT22;7560;51.364;12.384;2023-04-24T08:57:00;17.10;99.90
14934;DHT22;7560;51.364;12.384;2023-04-24T09:02:03;16.50;99.90
14934;DHT22;7560;51.364;12.384;2023-04-24T09:07:07;16.50;99.90
14934;DHT22;7560;51.364;12.384;2023-04-24T09:12:11;17.20;99.90
14934;DHT22;7560;51.364;12.384;2023-04-24T09:17:13;17.30;99.90
14934;DHT22;7560;51.364;12.384;2023-04-24T09:22:15;17.30;99.90
14934;DHT22;7560;51.364;12.384;2023-04-24T09:27:18;17.30;99.90
14934;DHT22;7560;51.364;12.384;2023-04-24T09:32:22;16.90;99.90
14934;DHT22;7560;51.364;12.384;2023-04-24T09:37:30;17.00;99.90
14934;DHT22;7560;51.364;12.384;2023-04-24T09:42:31;16.90;99.90
14934;DHT22;7560;51.364;12.384;2023-04-24T09:47:41;16.80;99.90
14934;DHT22;7560;51.364;12.384;2023-04-24T09:53:07;16.90;99.90
14934;DHT22;7560;51.364;12.384;2023-04-24T09:58:15;17.40;99.90
14934;DHT22;7560;51.364;12.384;2023-04-24T10:03:18;17.70;99.90
14934;DHT22;7560;51.364;12.384;2023-04-24T10:08:20;17.50;99.90
14934;DHT22;7560;51.364;12.384;2023-04-24T10:13:22;17.60;99.90
14934;DHT22;7560;51.364;12.384;2023-04-24T10:18:24;17.50;99.90
14934;DHT22;7560;51.364;12.384;2023-04-24T10:23:27;17.70;99.90
14934;DHT22;7560;51.364;12.384;2023-04-24T10:28:30;17.80;99.90
14934;DHT22;7560;51.364;12.384;2023-04-24T10:33:35;17.70;99.90
14934;DHT22;7560;51.364;12.384;2023-04-24T10:38:38;17.80;99.90
14934;DHT22;7560;51.364;12.384;2023-04-24T10:43:45;17.80;99.90
14934;DHT22;7560;51.364;12.384;2023-04-24T10:48:53;17.10;99.90
14934;DHT22;7560;51.364;12.384;2023-04-24T10:53:59;16.70;99.90
14934;DHT22;7560;51.364;12.384;2023-04-24T10:59:25;16.20;99.90
14934;DHT22;7560;51.364;12.384;2023-04-24T11:04:32;16.60;99.90
14934;DHT22;7560;51.364;12.384;2023-04-24T11:09:35;16.50;99.90
14934;DHT22;7560;51.364;12.384;2023-04-24T11:20:10;16.80;99.90
14934;DHT22;7560;51.364;12.384;2023-04-24T11:25:31;16.70;99.90
14934;DHT22;7560;51.364;12.384;2023-04-24T11:30:40;16.80;99.90
14934;DHT22;7560;51.364;12.384;2023-04-24T11:35:41;17.20;99.90
14934;DHT22;7560;51.364;12.384;2023-04-24T11:40:45;17.40;99.90
14934;DHT22;7560;51.364;12.384;2023-04-24T11:45:51;17.40;99.90
14934;DHT22;7560;51.364;12.384;2023-04-24T11:50:55;18.00;99.90
14934;DHT22;7560;51.364;12.384;2023-04-24T11:55:57;17.80;99.90
14934;DHT22;7560;51.364;12.384;2023-04-24T12:01:03;17.80;99.90
14934;DHT22;7560;51.364;12.384;2023-04-24T12:06:11;18.30;99.90
14934;DHT22;7560;51.364;12.384;2023-04-24T12:11:15;18.30;99.90
14934;DHT22;7560;51.364;12.384;2023-04-24T12:16:18;18.20;99.90
14934;DHT22;7560;51.364;12.384;2023-04-24T12:21:22;17.70;99.90
14934;DHT22;7560;51.364;12.384;2023-04-24T12:26:28;16.90;99.90
14934;DHT22;7560;51.364;12.384;2023-04-24T12:31:30;17.20;99.90
14934;DHT22;7560;51.364;12.384;2023-04-24T12:36:35;17.30;99.90
14934;DHT22;7560;51.364;12.384;2023-04-24T12:41:37;17.40;99.90
14934;DHT22;7560;51.364;12.384;2023-04-24T12:46:38;17.90;99.60
14934;DHT22;7560;51.364;12.384;2023-04-24T12:51:41;18.30;99.50
14934;DHT22;7560;51.364;12.384;2023-04-24T12:56:45;18.40;99.10
14934;DHT22;7560;51.364;12.384;2023-04-24T13:01:47;18.30;98.70
14934;DHT22;7560;51.364;12.384;2023-04-24T13:06:49;18.30;99.00
14934;DHT22;7560;51.364;12.384;2023-04-24T13:11:51;18.30;98.10
14934;DHT22;7560;51.364;12.384;2023-04-24T13:16:53;18.50;97.50
14934;DHT22;7560;51.364;12.384;2023-04-24T13:21:56;19.00;97.30
14934;DHT22;7560;51.364;12.384;2023-04-24T13:26:59;18.90;96.50
14934;DHT22;7560;51.364;12.384;2023-04-24T13:32:02;19.10;96.40
14934;DHT22;7560;51.364;12.384;2023-04-24T13:37:05;19.70;95.60
14934;DHT22;7560;51.364;12.384;2023-04-24T13:42:09;19.70;95.60
14934;DHT22;7560;51.364;12.384;2023-04-24T13:47:11;19.60;95.10
14934;DHT22;7560;51.364;12.384;2023-04-24T13:52:13;19.30;95.70
14934;DHT22;7560;51.364;12.384;2023-04-24T13:57:15;18.80;96.10
14934;DHT22;7560;51.364;12.384;2023-04-24T14:02:18;18.30;96.60
14934;DHT22;7560;51.364;12.384;2023-04-24T14:07:20;18.10;97.50
14934;DHT22;7560;51.364;12.384;2023-04-24T14:12:21;18.40;98.10
14934;DHT22;7560;51.364;12.384;2023-04-24T14:17:23;18.40;97.30
14934;DHT22;7560;51.364;12.384;2023-04-24T14:22:25;18.20;97.10
14934;DHT22;7560;51.364;12.384;2023-04-24T14:27:27;18.20;97.50
14934;DHT22;7560;51.364;12.384;2023-04-24T14:32:30;18.10;98.50
14934;DHT22;7560;51.364;12.384;2023-04-24T14:37:33;18.10;98.90
14934;DHT22;7560;51.364;12.384;2023-04-24T14:42:35;18.10;98.30
14934;DHT22;7560;51.364;12.384;2023-04-24T14:47:39;17.60;98.80
14934;DHT22;7560;51.364;12.384;2023-04-24T14:52:41;17.50;99.90
14934;DHT22;7560;51.364;12.384;2023-04-24T14:57:42;17.80;99.40
14934;DHT22;7560;51.364;12.384;2023-04-24T15:02:44;17.50;99.90
14934;DHT22;7560;51.364;12.384;2023-04-24T15:07:48;16.90;99.90
14934;DHT22;7560;51.364;12.384;2023-04-24T15:12:50;16.40;99.90
14934;DHT22;7560;51.364;12.384;2023-04-24T15:17:51;16.60;99.90
14934;DHT22;7560;51.364;12.384;2023-04-24T15:22:53;18.10;99.90
14934;DHT22;7560;51.364;12.384;2023-04-24T15:27:57;17.50;99.90
14934;DHT22;7560;51.364;12.384;2023-04-24T15:33:00;17.40;99.90
14934;DHT22;7560;51.364;12.384;2023-04-24T15:38:04;16.70;99.90
14934;DHT22;7560;51.364;12.384;2023-04-24T15:43:06;16.70;99.90
14934;DHT22;7560;51.364;12.384;2023-04-24T15:48:08;16.40;99.90
14934;DHT22;7560;51.364;12.384;2023-04-24T15:53:11;16.60;99.90
14934;DHT22;7560;51.364;12.384;2023-04-24T15:58:13;16.20;99.90
14934;DHT22;7560;51.364;12.384;2023-04-24T16:03:15;15.40;99.90
14934;DHT22;7560;51.364;12.384;2023-04-24T16:08:17;15.60;99.90
14934;DHT22;7560;51.364;12.384;2023-04-24T16:13:19;15.30;99.90
14934;DHT22;7560;51.364;12.384;2023-04-24T16:18:22;15.90;99.90
14934;DHT22;7560;51.364;12.384;2023-04-24T16:23:25;15.00;99.90
14934;DHT22;7560;51.364;12.384;2023-04-24T16:28:29;15.50;99.90
14934;DHT22;7560;51.364;12.384;2023-04-24T16:33:37;16.30;99.90
14934;DHT22;7560;51.364;12.384;2023-04-24T16:38:41;15.60;99.90
14934;DHT22;7560;51.364;12.384;2023-04-24T16:43:43;14.90;99.90
14934;DHT22;7560;51.364;12.384;2023-04-24T16:48:44;14.50;99.90
14934;DHT22;7560;51.364;12.384;2023-04-24T16:53:46;14.20;99.90
14934;DHT22;7560;51.364;12.384;2023-04-24T16:58:48;14.00;99.90
14934;DHT22;7560;51.364;12.384;2023-04-24T17:03:51;14.00;99.90
14934;DHT22;7560;51.364;12.384;2023-04-24T17:08:53;13.90;99.90
14934;DHT22;7560;51.364;12.384;2023-04-24T17:13:55;13.80;99.90
14934;DHT22;7560;51.364;12.384;2023-04-24T17:18:57;13.60;99.90
14934;DHT22;7560;51.364;12.384;2023-04-24T17:23:59;13.50;99.90
14934;DHT22;7560;51.364;12.384;2023-04-24T17:29:00;13.40;99.90
14934;DHT22;7560;51.364;12.384;2023-04-24T17:34:02;13.40;99.90
14934;DHT22;7560;51.364;12.384;2023-04-24T17:39:05;13.30;99.90
14934;DHT22;7560;51.364;12.384;2023-04-24T17:44:06;13.20;99.90
14934;DHT22;7560;51.364;12.384;2023-04-24T17:49:08;13.30;99.90
14934;DHT22;7560;51.364;12.384;2023-04-24T17:54:10;13.00;99.90
14934;DHT22;7560;51.364;12.384;2023-04-24T17:59:13;12.90;99.90
14934;DHT22;7560;51.364;12.384;2023-04-24T18:04:16;12.90;99.90
14934;DHT22;7560;51.364;12.384;2023-04-24T18:09:19;12.60;99.90
14934;DHT22;7560;51.364;12.384;2023-04-24T18:14:22;12.70;99.90
14934;DHT22;7560;51.364;12.384;2023-04-24T18:19:24;12.70;99.90
14934;DHT22;7560;51.364;12.384;2023-04-24T18:24:26;12.60;99.90
14934;DHT22;7560;51.364;12.384;2023-04-24T18:29:27;12.40;99.90
14934;DHT22;7560;51.364;12.384;2023-04-24T18:34:29;12.10;99.90
14934;DHT22;7560;51.364;12.384;2023-04-24T18:39:31;12.00;99.90
14934;DHT22;7560;51.364;12.384;2023-04-24T18:44:33;11.90;99.90
14934;DHT22;7560;51.364;12.384;2023-04-24T18:49:36;11.80;99.90
14934;DHT22;7560;51.364;12.384;2023-04-24T18:54:38;11.70;99.90
14934;DHT22;7560;51.364;12.384;2023-04-24T18:59:39;11.50;99.90
14934;DHT22;7560;51.364;12.384;2023-04-24T19:04:41;11.40;99.90
14934;DHT22;7560;51.364;12.384;2023-04-24T19:09:43;11.30;99.90
14934;DHT22;7560;51.364;12.384;2023-04-24T19:14:45;11.40;99.90
14934;DHT22;7560;51.364;12.384;2023-04-24T19:19:46;11.50;99.90
14934;DHT22;7560;51.364;12.384;2023-04-24T19:24:48;11.50;99.90
14934;DHT22;7560;51.364;12.384;2023-04-24T19:29:50;11.30;99.90
14934;DHT22;7560;51.364;12.384;2023-04-24T19:34:52;11.20;99.90
14934;DHT22;7560;51.364;12.384;2023-04-24T19:39:54;11.00;99.90
14934;DHT22;7560;51.364;12.384;2023-04-24T19:44:56;10.80;99.90
14934;DHT22;7560;51.364;12.384;2023-04-24T19:49:58;10.70;99.90
14934;DHT22;7560;51.364;12.384;2023-04-24T19:55:00;10.60;99.90
14934;DHT22;7560;51.364;12.384;2023-04-24T20:00:02;10.50;99.90
14934;DHT22;7560;51.364;12.384;2023-04-24T20:05:05;10.40;99.90
14934;DHT22;7560;51.364;12.384;2023-04-24T20:10:08;10.30;99.90
14934;DHT22;7560;51.364;12.384;2023-04-24T20:15:11;10.20;99.90
14934;DHT22;7560;51.364;12.384;2023-04-24T20:20:13;10.20;99.90
14934;DHT22;7560;51.364;12.384;2023-04-24T20:25:16;10.00;99.90
14934;DHT22;7560;51.364;12.384;2023-04-24T20:30:17;10.00;99.90
14934;DHT22;7560;51.364;12.384;2023-04-24T20:35:19;10.00;99.90
14934;DHT22;7560;51.364;12.384;2023-04-24T20:40:21;9.90;99.90
14934;DHT22;7560;51.364;12.384;2023-04-24T20:45:25;9.90;99.90
14934;DHT22;7560;51.364;12.384;2023-04-24T20:50:27;9.90;99.90
14934;DHT22;7560;51.364;12.384;2023-04-24T20:55:29;9.90;99.90
14934;DHT22;7560;51.364;12.384;2023-04-24T21:00:31;9.90;99.90
14934;DHT22;7560;51.364;12.384;2023-04-24T21:05:32;10.00;99.90
14934;DHT22;7560;51.364;12.384;2023-04-24T21:10:34;10.00;99.90
14934;DHT22;7560;51.364;12.384;2023-04-24T21:15:36;9.90;99.90
14934;DHT22;7560;51.364;12.384;2023-04-24T21:20:38;9.80;99.90
14934;DHT22;7560;51.364;12.384;2023-04-24T21:25:40;9.70;99.90
14934;DHT22;7560;51.364;12.384;2023-04-24T21:30:42;9.60;99.90
14934;DHT22;7560;51.364;12.384;2023-04-24T21:35:45;9.50;99.90
14934;DHT22;7560;51.364;12.384;2023-04-24T21:40:47;9.50;99.90
14934;DHT22;7560;51.364;12.384;2023-04-24T21:45:51;9.40;99.90
14934;DHT22;7560;51.364;12.384;2023-04-24T21:50:55;9.40;99.90
14934;DHT22;7560;51.364;12.384;2023-04-24T21:55:57;9.40;99.90
14934;DHT22;7560;51.364;12.384;2023-04-24T22:01:00;9.40;99.90
14934;DHT22;7560;51.364;12.384;2023-04-24T22:06:02;9.50;99.90
14934;DHT22;7560;51.364;12.384;2023-04-24T22:11:04;9.70;99.90
14934;DHT22;7560;51.364;12.384;2023-04-24T22:16:17;9.90;99.90
14934;DHT22;7560;51.364;12.384;2023-04-24T22:21:20;10.00;99.90
14934;DHT22;7560;51.364;12.384;2023-04-24T22:26:23;10.10;99.90
14934;DHT22;7560;51.364;12.384;2023-04-24T22:31:25;10.20;99.90
14934;DHT22;7560;51.364;12.384;2023-04-24T22:36:28;10.20;99.90
14934;DHT22;7560;51.364;12.384;2023-04-24T22:41:29;10.00;99.90
14934;DHT22;7560;51.364;12.384;2023-04-24T22:46:31;9.80;99.90
14934;DHT22;7560;51.364;12.384;2023-04-24T22:51:33;9.70;99.90
14934;DHT22;7560;51.364;12.384;2023-04-24T22:56:36;9.60;99.90
14934;DHT22;7560;51.364;12.384;2023-04-24T23:01:38;9.50;99.90
14934;DHT22;7560;51.364;12.384;2023-04-24T23:06:40;9.40;99.90
14934;DHT22;7560;51.364;12.384;2023-04-24T23:11:42;9.30;99.90
14934;DHT22;7560;51.364;12.384;2023-04-24T23:16:43;9.20;99.90
14934;DHT22;7560;51.364;12.384;2023-04-24T23:21:47;9.10;99.90
14934;DHT22;7560;51.364;12.384;2023-04-24T23:26:49;9.10;99.90
14934;DHT22;7560;51.364;12.384;2023-04-24T23:31:54;9.00;99.90
14934;DHT22;7560;51.364;12.384;2023-04-24T23:36:56;9.10;99.90
14934;DHT22;7560;51.364;12.384;2023-04-24T23:41:58;9.20;99.90
14934;DHT22;7560;51.364;12.384;2023-04-24T23:47:03;9.30;99.90
14934;DHT22;7560;51.364;12.384;2023-04-24T23:52:04;9.50;99.90
14934;DHT22;7560;51.364;12.384;2023-04-24T23:57:06;9.70;99.90
